createdAt,value
2022-08-21T00:03:49.019Z,10.05
2022-08-21T00:08:56.735Z,10.55
2022-08-21T00:14:01.863Z,9.35
2022-08-21T00:19:07.363Z,9.93
2022-08-21T00:24:16.643Z,9.90
2022-08-21T00:34:26.714Z,9.63
2022-08-21T00:39:34.849Z,9.38
2022-08-21T00:44:40.030Z,9.68
2022-08-21T00:49:45.152Z,9.95
2022-08-21T00:54:54.439Z,10.70
2022-08-21T01:00:04.434Z,10.50
2022-08-21T01:05:11.629Z,10.95
2022-08-21T01:10:24.100Z,12.68
2022-08-21T01:15:34.102Z,11.80
2022-08-21T01:20:41.012Z,11.60
2022-08-21T01:25:48.726Z,11.55
2022-08-21T01:30:54.963Z,11.60
2022-08-21T01:36:00.084Z,11.93
2022-08-21T01:41:08.139Z,12.88
2022-08-21T01:46:13.922Z,12.98
2022-08-21T01:51:19.309Z,13.57
2022-08-21T01:56:29.003Z,15.43
2022-08-21T02:01:34.106Z,15.52
2022-08-21T02:06:39.211Z,16.67
2022-08-21T02:11:46.984Z,14.80
2022-08-21T02:16:52.092Z,15.57
2022-08-21T02:22:10.831Z,16.15
2022-08-21T02:27:18.482Z,15.15
2022-08-21T02:32:32.286Z,14.73
2022-08-21T02:37:40.285Z,16.45
2022-08-21T02:42:48.004Z,15.45
2022-08-21T02:47:54.009Z,16.88
2022-08-21T02:52:59.481Z,16.60
2022-08-21T02:58:09.219Z,14.93
2022-08-21T03:03:16.442Z,15.20
2022-08-21T03:08:22.460Z,17.52
2022-08-21T03:13:33.185Z,16.80
2022-08-21T03:18:38.376Z,15.13
2022-08-21T03:23:45.850Z,15.80
2022-08-21T03:28:54.400Z,14.68
2022-08-21T03:33:59.436Z,15.00
2022-08-21T03:39:04.675Z,14.75
2022-08-21T03:44:12.973Z,15.70
2022-08-21T03:49:18.052Z,15.85
2022-08-21T03:54:23.571Z,15.05
2022-08-21T03:59:31.275Z,13.38
2022-08-21T04:04:36.740Z,14.02
2022-08-21T04:09:41.859Z,14.73
2022-08-21T04:14:49.534Z,15.80
2022-08-21T04:19:54.588Z,15.38
2022-08-21T04:24:59.668Z,13.80
2022-08-21T04:30:10.406Z,14.75
2022-08-21T04:35:18.337Z,14.35
2022-08-21T04:40:25.280Z,14.52
2022-08-21T04:45:35.998Z,15.80
2022-08-21T04:50:46.315Z,16.10
2022-08-21T04:55:52.433Z,16.50
2022-08-21T05:01:01.533Z,15.88
2022-08-21T05:06:08.501Z,14.57
2022-08-21T05:11:14.158Z,14.38
2022-08-21T05:16:36.862Z,13.55
2022-08-21T05:21:45.702Z,14.13
2022-08-21T05:26:50.812Z,14.13
2022-08-21T05:31:59.264Z,13.27
2022-08-21T05:37:07.796Z,11.87
2022-08-21T05:42:13.012Z,12.43
2022-08-21T05:47:20.841Z,12.18
2022-08-21T05:52:26.630Z,12.45
2022-08-21T05:57:31.683Z,11.82
2022-08-21T06:02:39.394Z,12.13
2022-08-21T06:07:44.416Z,12.82
2022-08-21T06:12:49.554Z,7.10
2022-08-21T06:17:57.483Z,7.57
2022-08-21T06:23:02.915Z,7.20
2022-08-21T06:28:09.917Z,8.57
2022-08-21T06:33:18.238Z,8.95
2022-08-21T06:38:23.341Z,8.60
2022-08-21T06:43:39.572Z,7.13
2022-08-21T06:48:47.979Z,7.45
2022-08-21T06:53:53.219Z,6.95
2022-08-21T06:58:59.199Z,6.50
2022-08-21T07:04:07.780Z,6.70
2022-08-21T07:09:13.037Z,7.17
2022-08-21T07:14:20.464Z,7.28
2022-08-21T07:19:29.163Z,8.15
2022-08-21T07:24:34.315Z,10.57
2022-08-21T07:29:39.371Z,9.00
2022-08-21T07:34:47.399Z,7.57
2022-08-21T07:45:39.586Z,7.80
2022-08-21T07:50:47.540Z,8.45
2022-08-21T07:55:52.597Z,10.25
2022-08-21T08:00:57.697Z,11.63
2022-08-21T08:06:05.905Z,11.43
2022-08-21T08:11:12.096Z,11.63
2022-08-21T08:16:17.424Z,11.98
2022-08-21T08:21:25.155Z,11.05
2022-08-21T08:26:31.072Z,11.45
2022-08-21T08:31:37.272Z,10.25
2022-08-21T08:36:45.001Z,9.70
2022-08-21T08:41:55.363Z,7.88
2022-08-21T08:47:04.136Z,8.60
2022-08-21T08:52:18.676Z,9.35
2022-08-21T08:57:25.101Z,10.23
2022-08-21T09:02:31.259Z,11.30
2022-08-21T09:07:51.093Z,10.27
2022-08-21T09:13:04.102Z,9.95
2022-08-21T09:18:21.836Z,9.93
2022-08-21T09:23:35.948Z,12.63
2022-08-21T09:28:42.255Z,11.02
2022-08-21T09:33:47.296Z,11.70
2022-08-21T09:38:57.817Z,12.52
2022-08-21T09:44:02.987Z,11.98
2022-08-21T09:49:13.459Z,10.63
2022-08-21T09:54:25.375Z,8.55
2022-08-21T09:59:36.901Z,8.48
2022-08-21T10:04:47.031Z,9.35
2022-08-21T10:10:02.727Z,7.75
2022-08-21T10:15:17.949Z,6.50
2022-08-21T10:20:26.841Z,7.97
2022-08-21T10:25:37.387Z,8.13
2022-08-21T10:30:54.994Z,7.53
2022-08-21T10:36:05.933Z,8.00
2022-08-21T10:41:21.115Z,7.45
2022-08-21T10:46:35.477Z,6.82
2022-08-21T10:51:45.160Z,5.07
2022-08-21T10:56:54.812Z,6.13
2022-08-21T11:02:03.925Z,5.85
2022-08-21T11:12:29.960Z,6.70
2022-08-21T11:17:38.838Z,8.93
2022-08-21T11:22:52.590Z,9.43
2022-08-21T11:28:04.960Z,11.05
2022-08-21T11:33:20.438Z,10.48
2022-08-21T11:38:34.365Z,10.43
2022-08-21T11:43:44.287Z,11.55
2022-08-21T11:48:56.155Z,10.85
2022-08-21T11:54:07.346Z,9.98
2022-08-21T11:59:18.586Z,9.98
2022-08-21T12:04:33.819Z,9.85
2022-08-21T12:09:40.595Z,9.57
2022-08-21T12:14:50.658Z,9.57
2022-08-21T12:20:02.291Z,7.97
2022-08-21T12:25:10.331Z,9.75
2022-08-21T12:30:37.437Z,9.25
2022-08-21T12:35:44.939Z,9.27
2022-08-21T12:40:55.271Z,8.90
2022-08-21T12:46:05.692Z,9.57
2022-08-21T12:51:14.396Z,10.50
2022-08-21T12:56:25.157Z,10.60
2022-08-21T13:01:40.806Z,9.82
2022-08-21T13:06:49.513Z,10.57
2022-08-21T13:11:54.836Z,11.65
2022-08-21T13:17:03.303Z,11.15
2022-08-21T13:22:33.389Z,8.03
2022-08-21T13:27:35.667Z,4.50
2022-08-21T13:32:46.471Z,9.68
2022-08-21T13:37:53.247Z,13.30
2022-08-21T13:42:58.823Z,13.57
2022-08-21T13:48:07.788Z,12.90
2022-08-21T13:53:28.053Z,11.52
2022-08-21T13:58:36.266Z,11.77
2022-08-21T14:03:47.389Z,11.55
2022-08-21T14:08:54.756Z,10.75
2022-08-21T14:14:04.076Z,9.75
2022-08-21T14:24:31.927Z,9.02
2022-08-21T14:29:46.621Z,8.55
2022-08-21T14:34:54.872Z,6.43
2022-08-21T14:40:00.369Z,5.40
2022-08-21T14:45:09.367Z,6.35
2022-08-21T14:50:17.559Z,8.10
2022-08-21T14:55:23.160Z,5.03
2022-08-21T15:00:35.974Z,7.88
2022-08-21T15:05:44.063Z,6.38
2022-08-21T15:11:10.694Z,6.82
2022-08-21T15:16:15.824Z,5.90
2022-08-21T15:21:23.479Z,6.20
2022-08-21T15:26:29.549Z,6.75
2022-08-21T15:31:34.674Z,9.55
2022-08-21T15:36:42.304Z,9.52
2022-08-21T15:41:47.330Z,9.52
2022-08-21T15:46:52.343Z,10.50
2022-08-21T15:51:59.963Z,9.23
2022-08-21T15:57:05.000Z,11.93
2022-08-21T16:02:11.041Z,14.32
2022-08-21T16:07:18.859Z,13.23
2022-08-21T16:12:25.948Z,9.90
2022-08-21T16:17:33.711Z,13.55
2022-08-21T16:22:44.490Z,10.68
2022-08-21T16:27:57.305Z,9.93
2022-08-21T16:33:05.644Z,8.27
2022-08-21T16:38:14.457Z,8.60
2022-08-21T16:43:19.731Z,6.00
2022-08-21T16:48:25.307Z,5.55
2022-08-21T16:53:32.940Z,5.60
2022-08-21T16:58:42.286Z,4.93
2022-08-21T17:08:56.131Z,8.98
2022-08-21T17:14:01.848Z,9.38
2022-08-21T17:19:10.398Z,4.70
2022-08-21T17:24:19.522Z,3.95
2022-08-21T17:29:28.974Z,4.57
2022-08-21T17:34:34.357Z,5.88
2022-08-21T17:39:43.732Z,5.20
2022-08-21T17:44:49.103Z,6.07
2022-08-21T17:49:54.163Z,5.13
2022-08-21T17:55:01.795Z,4.28
2022-08-21T18:00:09.288Z,4.32
2022-08-21T18:05:16.359Z,4.53
2022-08-21T18:10:24.061Z,4.55
2022-08-21T18:15:29.187Z,4.80
2022-08-21T18:20:34.339Z,6.22
2022-08-21T18:25:42.544Z,5.22
2022-08-21T18:30:47.639Z,4.85
2022-08-21T18:35:53.140Z,5.60
2022-08-21T18:41:02.759Z,7.43
2022-08-21T18:46:15.175Z,7.25
2022-08-21T18:51:20.551Z,9.45
2022-08-21T18:56:29.048Z,7.80
2022-08-21T19:01:34.090Z,8.38
2022-08-21T19:06:41.046Z,7.93
2022-08-21T19:11:55.427Z,8.20
2022-08-21T19:17:00.883Z,6.78
2022-08-21T19:22:06.114Z,6.32
2022-08-21T19:27:19.099Z,6.35
2022-08-21T19:32:24.228Z,6.45
2022-08-21T19:37:31.957Z,6.45
2022-08-21T19:42:45.844Z,5.63
2022-08-21T19:47:51.979Z,6.30
2022-08-21T19:52:57.209Z,6.68
2022-08-21T19:58:06.050Z,6.60
2022-08-21T20:03:11.513Z,6.70
2022-08-21T20:08:20.449Z,7.65
2022-08-21T20:13:32.618Z,6.97
2022-08-21T20:18:41.424Z,7.78
2022-08-21T20:23:49.073Z,7.75
2022-08-21T20:28:57.442Z,7.55
2022-08-21T20:34:02.832Z,8.50
2022-08-21T20:39:09.484Z,8.40
2022-08-21T20:44:19.835Z,7.67
2022-08-21T20:49:28.670Z,7.97
2022-08-21T20:54:37.366Z,7.90
2022-08-21T20:59:50.226Z,8.73
2022-08-21T21:04:58.585Z,8.75
2022-08-21T21:10:05.448Z,8.70
2022-08-21T21:20:47.558Z,7.95
2022-08-21T21:26:01.161Z,9.00
2022-08-21T21:31:08.960Z,8.88
2022-08-21T21:36:25.932Z,9.05
2022-08-21T21:47:12.032Z,9.93
2022-08-21T21:52:27.322Z,9.68
2022-08-21T21:57:50.054Z,9.20
2022-08-21T22:08:41.024Z,6.80
2022-08-21T22:13:59.056Z,6.13
2022-08-21T22:19:14.041Z,6.03
2022-08-21T22:24:23.812Z,7.25
2022-08-21T22:29:29.088Z,9.13
2022-08-21T22:34:36.872Z,7.78
2022-08-21T22:39:46.418Z,11.65
2022-08-21T22:44:53.661Z,9.73
2022-08-21T22:50:04.751Z,10.95
2022-08-21T22:55:24.764Z,9.02
2022-08-21T23:00:42.488Z,8.95
2022-08-21T23:05:50.204Z,10.25
2022-08-21T23:11:01.451Z,8.93
2022-08-21T23:21:45.936Z,9.10
2022-08-21T23:27:01.047Z,10.23
2022-08-21T23:32:14.894Z,11.45
2022-08-21T23:37:49.303Z,11.55
2022-08-21T23:43:06.948Z,10.52
2022-08-21T23:48:29.472Z,12.20
2022-08-21T23:53:50.504Z,11.73
2022-08-21T23:59:21.874Z,10.52
